SIPS weather

Haras Forum Heliport
Pedro Leopoldo, Minas Gerais, Brazil

Public forecast

Using degrees Celsius for public forecast. Weather courtesy of forecast.io.

METAR (pilot weather report)

Closest report is Tancredo Neves International Airport, 10.1 nm (18.7 km) ENE. Retrieved 2019/07/21 04:00 UTC (26 minutes ago):

SBCF 210400Z 09007KT CAVOK 14/10 Q1026

TAF (pilot weather forecast)

Closest forecast is Tancredo Neves International Airport, 10.1 nm (18.7 km) ENE. Retrieved 2019/07/21 00:00 UTC (4 hours ago):

TAF SBCF 202000Z 2100/2124 08005KT CAVOK TN11/2108Z TX24/2118Z BECMG 2107/2109 12008KT BECMG 2111/2113 09010KT BECMG 2115/2117 06008KT SCT045 BECMG 2121/2123 09008KT RMK PEH